Time;durP1;ratioP1;P1;durP2;ratioP2;P2;SDS_P1;SDS_P2;PMS_P1;PMS_P2;Temp;Humidity;BMP_temperature;BMP_pressure;BME280_temperature;BME280_humidity;BME280_pressure;Samples;Min_cycle;Max_cycle;Signal;HPM_P1;HPM_P2
2022/05/31 00:01:36;;;;;;;;;;;12.70;99.90;;;;;;5102334;28;19919;-81
2022/05/31 00:04:01;;;;;;;;;;;12.60;99.90;;;;;;5102843;28;19985;-82
2022/05/31 00:06:26;;;;;;;;;;;12.60;99.90;;;;;;5101752;28;19919;-81
2022/05/31 00:08:53;;;;;;;;;;;12.50;99.90;;;;;;5105084;28;19934;-81
2022/05/31 00:11:19;;;;;;;;;;;12.50;99.90;;;;;;5101150;28;19922;-82
2022/05/31 00:13:45;;;;;;;;;;;12.40;99.90;;;;;;5105317;28;19959;-82
2022/05/31 00:16:10;;;;;;;;;;;12.40;99.90;;;;;;5101022;28;19955;-82
2022/05/31 00:18:36;;;;;;;;;;;12.40;99.90;;;;;;5104072;28;19923;-82
2022/05/31 00:21:02;;;;;;;;;;;12.40;99.90;;;;;;5102694;28;20107;-80
2022/05/31 00:23:30;;;;;;;;;;;12.40;99.90;;;;;;5103647;28;19957;-81
2022/05/31 00:25:56;;;;;;;;;;;12.40;99.90;;;;;;5098302;28;19999;-82
2022/05/31 00:28:21;;;;;;;;;;;12.40;99.90;;;;;;5101870;28;19927;-81
2022/05/31 00:30:47;;;;;;;;;;;12.40;99.90;;;;;;5101414;28;19909;-83
2022/05/31 00:33:12;;;;;;;;;;;12.40;99.90;;;;;;5100360;28;19965;-81
2022/05/31 00:35:41;;;;;;;;;;;12.40;99.90;;;;;;5100697;28;19948;-82
2022/05/31 00:38:07;;;;;;;;;;;12.40;99.90;;;;;;5103889;28;19967;-81
2022/05/31 00:40:34;;;;;;;;;;;12.30;99.90;;;;;;5099812;28;19987;-82
2022/05/31 00:43:01;;;;;;;;;;;12.20;99.90;;;;;;5104573;28;19965;-82
2022/05/31 00:45:34;;;;;;;;;;;12.20;99.90;;;;;;5100758;28;19951;-82
2022/05/31 00:47:59;;;;;;;;;;;12.10;99.90;;;;;;5106182;28;20391;-79
2022/05/31 00:50:33;;;;;;;;;;;12.10;99.90;;;;;;5103942;28;19912;-80
2022/05/31 00:53:01;;;;;;;;;;;12.10;1.00;;;;;;5100732;28;19974;-82
2022/05/31 00:55:32;;;;;;;;;;;12.10;1.00;;;;;;5098606;28;19912;-82
2022/05/31 00:58:05;;;;;;;;;;;12.10;1.00;;;;;;5102769;28;19916;-81
2022/05/31 01:00:30;;;;;;;;;;;12.00;1.00;;;;;;5094034;28;20364;-81
2022/05/31 01:02:57;;;;;;;;;;;12.00;1.00;;;;;;5104177;28;19915;-81
2022/05/31 01:05:24;;;;;;;;;;;11.90;1.00;;;;;;5100533;28;19973;-81
2022/05/31 01:07:49;;;;;;;;;;;11.90;1.00;;;;;;5102531;28;19915;-82
2022/05/31 01:10:15;;;;;;;;;;;11.90;1.00;;;;;;5100703;28;20473;-81
2022/05/31 01:12:42;;;;;;;;;;;12.00;1.00;;;;;;5099445;28;19976;-81
2022/05/31 01:15:08;;;;;;;;;;;11.90;1.00;;;;;;5097588;28;19979;-81
2022/05/31 01:17:34;;;;;;;;;;;12.00;1.00;;;;;;5100033;28;19970;-81
2022/05/31 01:20:06;;;;;;;;;;;12.00;1.00;;;;;;5103084;28;19912;-81
2022/05/31 01:22:43;;;;;;;;;;;12.10;1.00;;;;;;5117940;27;19913;-79
2022/05/31 01:25:09;;;;;;;;;;;12.10;1.00;;;;;;5104321;28;19922;-82
2022/05/31 01:40:36;;;;;;;;;;;12.20;1.00;;;;;;5058587;28;20363;-83
2022/05/31 01:49:47;;;;;;;;;;;;;;;;;;;;;
2022/05/31 01:52:20;;;;;;;;;;;11.80;99.90;;;;;;5054606;28;19913;-83
2022/05/31 01:54:53;;;;;;;;;;;11.70;1.00;;;;;;5061644;28;19913;-83
2022/05/31 01:57:42;;;;;;;;;;;11.60;1.00;;;;;;5058749;28;19962;-83
2022/05/31 02:12:31;;;;;;;;;;;11.50;99.90;;;;;;5047386;28;19912;-83
2022/05/31 02:20:58;;;;;;;;;;;11.40;99.90;;;;;;5049488;28;19935;-83
2022/05/31 02:23:45;;;;;;;;;;;11.40;99.90;;;;;;5057431;28;19913;-83
2022/05/31 02:26:13;;;;;;;;;;;11.40;1.00;;;;;;5055794;28;19967;-83
2022/05/31 02:37:51;;;;;;;;;;;11.30;1.00;;;;;;5055173;28;19923;-83
2022/05/31 02:49:46;;;;;;;;;;;11.30;1.00;;;;;;5063060;28;19944;-82
2022/05/31 02:55:50;;;;;;;;;;;;;;;;;;;;;
2022/05/31 03:01:35;;;;;;;;;;;11.30;1.00;;;;;;5051054;28;19980;-83
2022/05/31 03:07:48;;;;;;;;;;;11.40;1.00;;;;;;5046895;28;20395;-83
2022/05/31 03:13:39;;;;;;;;;;;11.40;1.00;;;;;;5051219;28;19948;-83
2022/05/31 03:16:08;;;;;;;;;;;11.40;99.90;;;;;;5057496;28;19916;-82
2022/05/31 03:36:44;;;;;;;;;;;;;;;;;;;;;
2022/05/31 03:51:57;;;;;;;;;;;11.20;99.90;;;;;;5045601;28;19912;-82
2022/05/31 04:03:52;;;;;;;;;;;11.30;1.00;;;;;;5050032;28;19913;-83
2022/05/31 04:12:34;;;;;;;;;;;11.40;99.90;;;;;;5033648;28;19968;-83
2022/05/31 04:18:16;;;;;;;;;;;;;;;;;;;;;
2022/05/31 04:33:13;;;;;;;;;;;11.30;1.00;;;;;;5057215;28;19920;-83
2022/05/31 04:36:02;;;;;;;;;;;11.30;99.90;;;;;;5056851;28;20297;-83
2022/05/31 04:59:40;;;;;;;;;;;;;;;;;;;;;
2022/05/31 05:02:18;;;;;;;;;;;;;;;;;;;;;
2022/05/31 05:05:13;;;;;;;;;;;11.30;99.90;;;;;;5060684;28;19984;-83
2022/05/31 05:08:15;;;;;;;;;;;;;;;;;;;;;
2022/05/31 05:13:49;;;;;;;;;;;11.50;99.90;;;;;;5059993;28;19934;-83
2022/05/31 05:20:24;;;;;;;;;;;;;;;;;;;;;
2022/05/31 05:22:49;;;;;;;;;;;11.50;1.00;;;;;;5046128;28;19919;-83
2022/05/31 05:32:16;;;;;;;;;;;;;;;;;;;;;
2022/05/31 05:37:47;;;;;;;;;;;11.60;1.00;;;;;;5057625;28;20369;-82
2022/05/31 05:40:13;;;;;;;;;;;11.70;99.90;;;;;;5066349;28;19980;-82
2022/05/31 05:42:42;;;;;;;;;;;11.90;99.90;;;;;;5060200;28;19935;-82
2022/05/31 05:45:10;;;;;;;;;;;12.10;99.90;;;;;;5064229;28;19947;-82
2022/05/31 05:47:36;;;;;;;;;;;12.20;99.90;;;;;;5062444;28;19921;-82
2022/05/31 05:50:02;;;;;;;;;;;12.30;99.90;;;;;;5064887;28;19920;-81
2022/05/31 05:52:28;;;;;;;;;;;12.30;1.00;;;;;;5066933;28;19948;-81
2022/05/31 05:54:56;;;;;;;;;;;12.30;2.20;;;;;;5066730;28;19920;-81
2022/05/31 05:57:21;;;;;;;;;;;12.30;1.00;;;;;;5065724;28;19913;-82
2022/05/31 05:59:46;;;;;;;;;;;12.40;1.00;;;;;;5073161;28;19917;-81
2022/05/31 06:02:16;;;;;;;;;;;12.50;99.90;;;;;;5067911;28;19955;-81
2022/05/31 06:04:48;;;;;;;;;;;12.60;99.90;;;;;;5069294;28;19939;-82
2022/05/31 06:07:17;;;;;;;;;;;12.70;99.90;;;;;;5063397;28;19920;-82
2022/05/31 06:09:47;;;;;;;;;;;12.80;99.90;;;;;;5061982;28;20011;-82
2022/05/31 06:12:21;;;;;;;;;;;12.70;99.90;;;;;;5058013;28;19920;-81
2022/05/31 06:14:52;;;;;;;;;;;12.80;99.90;;;;;;5065607;28;19962;-82
2022/05/31 06:17:21;;;;;;;;;;;12.90;1.00;;;;;;5057031;28;19940;-82
2022/05/31 06:19:48;;;;;;;;;;;13.10;1.00;;;;;;5061676;28;19964;-82
2022/05/31 06:22:16;;;;;;;;;;;13.20;99.90;;;;;;5055620;28;20369;-82
2022/05/31 06:24:44;;;;;;;;;;;13.30;1.00;;;;;;5057315;28;20367;-82
2022/05/31 06:27:09;;;;;;;;;;;13.50;2.90;;;;;;5056959;28;20004;-82
2022/05/31 06:29:40;;;;;;;;;;;13.80;99.90;;;;;;5059649;28;19913;-82
2022/05/31 06:32:10;;;;;;;;;;;14.10;1.00;;;;;;5062852;28;20367;-82
2022/05/31 06:34:37;;;;;;;;;;;14.20;1.00;;;;;;5062573;28;19952;-81
2022/05/31 06:37:04;;;;;;;;;;;14.40;1.00;;;;;;5062629;28;19920;-82
2022/05/31 06:39:42;;;;;;;;;;;14.70;99.90;;;;;;5060167;28;19921;-81
2022/05/31 06:42:07;;;;;;;;;;;15.40;1.00;;;;;;5058200;28;19959;-82
2022/05/31 06:44:34;;;;;;;;;;;16.00;99.90;;;;;;5055464;28;19917;-82
2022/05/31 06:47:01;;;;;;;;;;;16.90;1.00;;;;;;5060481;28;19924;-82
2022/05/31 06:49:35;;;;;;;;;;;18.80;99.90;;;;;;5059529;28;19928;-83
2022/05/31 06:57:40;;;;;;;;;;;23.60;99.90;;;;;;5062076;28;19967;-80
2022/05/31 07:00:07;;;;;;;;;;;23.30;99.90;;;;;;5062319;28;20356;-80
2022/05/31 07:02:34;;;;;;;;;;;23.40;99.90;;;;;;5060421;28;19935;-80
2022/05/31 07:04:59;;;;;;;;;;;25.40;99.90;;;;;;5063099;28;19958;-81
2022/05/31 07:07:34;;;;;;;;;;;24.90;99.90;;;;;;5060733;28;20007;-81
2022/05/31 07:10:03;;;;;;;;;;;23.90;99.90;;;;;;5063163;28;19919;-81
2022/05/31 07:12:29;;;;;;;;;;;23.40;99.90;;;;;;5057324;28;19921;-81
2022/05/31 07:14:55;;;;;;;;;;;22.40;99.90;;;;;;5063810;28;19939;-80
2022/05/31 07:17:20;;;;;;;;;;;21.80;99.90;;;;;;5061758;28;19944;-80
2022/05/31 07:19:45;;;;;;;;;;;21.20;99.90;;;;;;5060281;28;19960;-80
2022/05/31 07:22:11;;;;;;;;;;;21.10;99.90;;;;;;5058648;28;19920;-80
2022/05/31 07:24:36;;;;;;;;;;;21.20;99.90;;;;;;5075753;28;20457;-80
2022/05/31 07:27:02;;;;;;;;;;;22.00;99.90;;;;;;5059877;28;19920;-81
2022/05/31 07:29:28;;;;;;;;;;;24.00;99.90;;;;;;5059599;28;19917;-81
2022/05/31 07:31:53;;;;;;;;;;;24.60;99.90;;;;;;5061643;28;19913;-81
2022/05/31 07:34:19;;;;;;;;;;;23.40;99.90;;;;;;5059807;28;19912;-80
2022/05/31 07:36:45;;;;;;;;;;;22.00;99.90;;;;;;5062164;28;19913;-80
2022/05/31 07:39:12;;;;;;;;;;;20.90;99.90;;;;;;5060037;28;19917;-80
2022/05/31 07:41:40;;;;;;;;;;;20.10;99.90;;;;;;5062273;28;20365;-82
2022/05/31 07:44:06;;;;;;;;;;;19.20;99.90;;;;;;5063105;28;19917;-82
2022/05/31 07:46:31;;;;;;;;;;;19.00;99.90;;;;;;5066047;28;19921;-82
2022/05/31 07:48:57;;;;;;;;;;;18.80;99.90;;;;;;5068327;28;20104;-82
2022/05/31 07:51:26;;;;;;;;;;;18.70;99.90;;;;;;5061924;28;19957;-82
2022/05/31 07:54:15;;;;;;;;;;;18.40;99.90;;;;;;5063679;28;19934;-82
2022/05/31 07:56:42;;;;;;;;;;;17.90;99.90;;;;;;5059960;28;19917;-82
2022/05/31 07:59:10;;;;;;;;;;;17.70;99.90;;;;;;5057954;28;19927;-82
2022/05/31 08:07:47;;;;;;;;;;;18.20;99.90;;;;;;5056559;28;19919;-82
2022/05/31 08:10:13;;;;;;;;;;;18.20;99.90;;;;;;5068341;28;19913;-80
2022/05/31 08:12:39;;;;;;;;;;;18.30;99.90;;;;;;5063901;28;19923;-80
2022/05/31 08:15:05;;;;;;;;;;;18.50;99.90;;;;;;5064847;28;19917;-83
2022/05/31 08:17:33;;;;;;;;;;;18.90;99.90;;;;;;5064370;28;19913;-80
2022/05/31 08:20:00;;;;;;;;;;;19.40;99.90;;;;;;5062165;28;19988;-80
2022/05/31 08:22:26;;;;;;;;;;;19.80;99.90;;;;;;5064887;28;19919;-82
2022/05/31 08:24:51;;;;;;;;;;;24.00;99.90;;;;;;5065885;28;20003;-81
2022/05/31 08:27:17;;;;;;;;;;;27.70;99.90;;;;;;5065533;28;19974;-81
2022/05/31 08:29:42;;;;;;;;;;;30.20;99.90;;;;;;5068970;28;19913;-81
2022/05/31 08:32:08;;;;;;;;;;;30.70;99.90;;;;;;5074447;28;19980;-81
2022/05/31 08:34:34;;;;;;;;;;;31.60;99.90;;;;;;5074553;28;19944;-82
2022/05/31 08:36:59;;;;;;;;;;;33.60;99.90;;;;;;5072276;28;19913;-81
2022/05/31 08:39:27;;;;;;;;;;;34.90;99.90;;;;;;5072371;28;19925;-84
2022/05/31 08:45:00;;;;;;;;;;;34.60;99.90;;;;;;5054734;28;19917;-84
2022/05/31 08:47:48;;;;;;;;;;;35.30;99.90;;;;;;5063704;28;19916;-84
2022/05/31 08:53:29;;;;;;;;;;;;;;;;;;;;;
2022/05/31 08:58:55;;;;;;;;;;;38.60;99.90;;;;;;5059428;28;19967;-83
2022/05/31 09:01:27;;;;;;;;;;;40.10;99.90;;;;;;5058004;28;19924;-84
2022/05/31 09:03:56;;;;;;;;;;;40.30;99.90;;;;;;5057911;28;19913;-84
2022/05/31 09:06:36;;;;;;;;;;;40.30;99.90;;;;;;5057729;28;19959;-83
2022/05/31 09:24:56;;;;;;;;;;;;;;;;;;;;;
2022/05/31 09:27:37;;;;;;;;;;;39.50;96.90;;;;;;5058990;28;20351;-84
2022/05/31 09:30:16;;;;;;;;;;;39.90;96.00;;;;;;5062239;28;19901;-83
2022/05/31 09:33:07;;;;;;;;;;;;;;;;;;;;;
2022/05/31 09:35:51;;;;;;;;;;;38.50;90.90;;;;;;5063787;28;20350;-83
2022/05/31 09:44:28;;;;;;;;;;;;;;;;;;;;;
2022/05/31 09:50:11;;;;;;;;;;;35.20;73.80;;;;;;5056478;28;19991;-84
2022/05/31 09:57:05;;;;;;;;;;;34.60;73.80;;;;;;5054490;28;19912;-83
2022/05/31 09:59:07;;;;;;;;;;;36.70;79.20;;;;;;5051106;28;19931;-83
2022/05/31 10:01:42;;;;;;;;;;;37.70;84.20;;;;;;5064486;28;20277;-84
2022/05/31 10:04:12;;;;;;;;;;;37.90;82.60;;;;;;5063440;28;19924;-83
2022/05/31 10:06:58;;;;;;;;;;;38.10;82.20;;;;;;5060141;28;19939;-84
2022/05/31 10:09:28;;;;;;;;;;;39.40;85.10;;;;;;5058537;28;19952;-84
2022/05/31 10:12:04;;;;;;;;;;;39.50;80.80;;;;;;5060115;28;19954;-83
2022/05/31 10:14:33;;;;;;;;;;;39.60;81.20;;;;;;5058945;28;19942;-84
2022/05/31 10:17:29;;;;;;;;;;;38.80;77.10;;;;;;5055496;28;19980;-84
2022/05/31 10:20:07;;;;;;;;;;;38.30;73.50;;;;;;5063717;28;20153;-84
2022/05/31 10:22:35;;;;;;;;;;;39.30;76.00;;;;;;5056502;28;20003;-83
2022/05/31 10:25:18;;;;;;;;;;;39.10;73.90;;;;;;5062495;28;20296;-84
2022/05/31 10:27:47;;;;;;;;;;;38.80;72.10;;;;;;5049735;28;19917;-84
2022/05/31 10:30:17;;;;;;;;;;;38.80;71.60;;;;;;5050241;28;19913;-83
2022/05/31 10:32:46;;;;;;;;;;;39.10;72.00;;;;;;5049671;28;19913;-83
2022/05/31 10:35:15;;;;;;;;;;;39.40;72.80;;;;;;5056663;28;19916;-84
2022/05/31 10:37:57;;;;;;;;;;;39.50;72.30;;;;;;5047148;28;20950;-84
2022/05/31 10:40:43;;;;;;;;;;;39.40;69.20;;;;;;5053548;28;20286;-82
2022/05/31 10:43:26;;;;;;;;;;;38.70;64.30;;;;;;5051519;28;19924;-84
2022/05/31 10:45:57;;;;;;;;;;;38.40;64.20;;;;;;5054577;28;19912;-84
2022/05/31 10:48:23;;;;;;;;;;;39.10;66.40;;;;;;5055698;28;19917;-83
2022/05/31 10:51:07;;;;;;;;;;;39.10;66.00;;;;;;5055844;28;20393;-84
2022/05/31 10:53:51;;;;;;;;;;;39.90;68.00;;;;;;5053405;28;19913;-84
2022/05/31 10:56:24;;;;;;;;;;;39.30;65.00;;;;;;5054339;28;19942;-82
2022/05/31 10:59:18;;;;;;;;;;;36.40;55.10;;;;;;5068443;28;19916;-84
2022/05/31 11:01:43;;;;;;;;;;;34.70;51.50;;;;;;5050018;28;20004;-84
2022/05/31 11:04:35;;;;;;;;;;;32.10;47.40;;;;;;5049872;28;19949;-83
2022/05/31 11:07:17;;;;;;;;;;;;;;;;;;;;;
2022/05/31 11:13:04;;;;;;;;;;;29.30;45.20;;;;;;5057396;28;19939;-83
2022/05/31 11:15:50;;;;;;;;;;;28.60;45.60;;;;;;5055869;28;19920;-83
2022/05/31 11:18:15;;;;;;;;;;;28.30;45.80;;;;;;5054486;28;20003;-81
2022/05/31 11:20:41;;;;;;;;;;;28.60;48.10;;;;;;5050580;28;19944;-81
2022/05/31 11:23:21;;;;;;;;;;;28.90;50.60;;;;;;5052032;28;19944;-81
2022/05/31 11:25:54;;;;;;;;;;;29.00;52.30;;;;;;5047578;28;19939;-82
2022/05/31 11:28:23;;;;;;;;;;;28.20;51.40;;;;;;5052254;28;19924;-81
2022/05/31 11:31:08;;;;;;;;;;;27.70;50.80;;;;;;5056585;28;19920;-81
2022/05/31 11:33:41;;;;;;;;;;;27.70;51.80;;;;;;5056766;28;19979;-82
2022/05/31 11:36:12;;;;;;;;;;;28.50;55.00;;;;;;5057155;28;20306;-81
2022/05/31 11:38:46;;;;;;;;;;;28.40;55.20;;;;;;5053810;28;19917;-81
2022/05/31 11:41:33;;;;;;;;;;;27.50;52.90;;;;;;5057185;28;19917;-81
2022/05/31 11:44:08;;;;;;;;;;;27.60;54.60;;;;;;5052023;28;19999;-81
2022/05/31 11:46:44;;;;;;;;;;;27.90;55.30;;;;;;5056702;28;19996;-81
2022/05/31 11:49:18;;;;;;;;;;;26.90;53.90;;;;;;5055836;28;20053;-81
2022/05/31 11:51:53;;;;;;;;;;;26.40;68.20;;;;;;5056087;28;20050;-81
2022/05/31 11:54:33;;;;;;;;;;;26.10;55.30;;;;;;5056523;28;19943;-81
2022/05/31 11:57:01;;;;;;;;;;;25.50;53.40;;;;;;5057086;28;19913;-81
2022/05/31 11:59:32;;;;;;;;;;;26.50;58.10;;;;;;5057405;28;19998;-80
2022/05/31 12:02:17;;;;;;;;;;;27.10;61.20;;;;;;5066531;28;19913;-82
2022/05/31 12:04:44;;;;;;;;;;;26.70;59.70;;;;;;5055173;28;19912;-81
2022/05/31 12:07:10;;;;;;;;;;;26.20;58.70;;;;;;5056151;28;19951;-81
2022/05/31 12:09:40;;;;;;;;;;;26.00;59.80;;;;;;5054902;28;20309;-82
2022/05/31 12:12:08;;;;;;;;;;;25.90;59.60;;;;;;5056457;28;19913;-81
2022/05/31 12:14:39;;;;;;;;;;;25.60;60.40;;;;;;5058502;28;19913;-81
2022/05/31 12:17:05;;;;;;;;;;;25.80;62.60;;;;;;5063800;28;20361;-82
2022/05/31 12:19:50;;;;;;;;;;;26.40;66.30;;;;;;5057765;28;20293;-82
2022/05/31 12:22:19;;;;;;;;;;;27.90;72.00;;;;;;5062960;28;19913;-82
2022/05/31 12:24:52;;;;;;;;;;;28.60;73.80;;;;;;5057326;28;19913;-82
2022/05/31 12:27:24;;;;;;;;;;;29.50;78.00;;;;;;5055775;28;19940;-82
2022/05/31 12:29:49;;;;;;;;;;;29.20;76.60;;;;;;5059594;28;19982;-82
2022/05/31 12:32:39;;;;;;;;;;;28.80;74.10;;;;;;5059330;28;19917;-81
2022/05/31 12:35:07;;;;;;;;;;;28.60;72.70;;;;;;5059431;28;19913;-82
2022/05/31 12:38:10;;;;;;;;;;;28.90;74.10;;;;;;5063118;28;19912;-82
2022/05/31 12:40:37;;;;;;;;;;;29.20;75.80;;;;;;5030331;28;19917;-82
2022/05/31 12:43:06;;;;;;;;;;;29.60;76.60;;;;;;5053440;28;19921;-82
2022/05/31 12:45:32;;;;;;;;;;;29.70;75.10;;;;;;5053007;28;19920;-82
2022/05/31 12:47:59;;;;;;;;;;;30.30;78.20;;;;;;5054681;28;19913;-83
2022/05/31 12:50:54;;;;;;;;;;;30.70;77.80;;;;;;5057468;28;19913;-85
2022/05/31 12:53:39;;;;;;;;;;;30.50;75.00;;;;;;5038149;28;19919;-83
2022/05/31 12:56:06;;;;;;;;;;;29.80;70.70;;;;;;5053475;28;19917;-82
2022/05/31 12:58:37;;;;;;;;;;;29.20;69.60;;;;;;5059044;28;19913;-83
2022/05/31 13:01:07;;;;;;;;;;;29.20;69.60;;;;;;5056315;28;19971;-83
2022/05/31 13:03:32;;;;;;;;;;;29.10;68.60;;;;;;5058356;28;19923;-82
2022/05/31 13:06:09;;;;;;;;;;;29.00;69.20;;;;;;5056973;28;20390;-82
2022/05/31 13:08:43;;;;;;;;;;;29.40;70.50;;;;;;5057930;28;20015;-83
2022/05/31 13:19:41;;;;;;;;;;;27.30;62.80;;;;;;5061695;28;19974;-81
2022/05/31 13:22:14;;;;;;;;;;;26.60;59.30;;;;;;5063911;28;20050;-82
2022/05/31 13:25:02;;;;;;;;;;;26.00;62.20;;;;;;5060522;28;19944;-81
2022/05/31 13:27:29;;;;;;;;;;;25.60;61.30;;;;;;5058434;28;19917;-82
2022/05/31 13:30:04;;;;;;;;;;;25.50;63.90;;;;;;5063424;28;19916;-81
2022/05/31 13:32:35;;;;;;;;;;;25.40;66.10;;;;;;5063118;28;19917;-81
2022/05/31 13:35:05;;;;;;;;;;;25.20;67.70;;;;;;5067810;28;19912;-82
2022/05/31 13:37:31;;;;;;;;;;;24.30;64.90;;;;;;5068334;28;19919;-82
2022/05/31 13:40:00;;;;;;;;;;;24.20;71.60;;;;;;5072426;28;19952;-82
2022/05/31 13:42:33;;;;;;;;;;;24.10;73.70;;;;;;5068460;28;19967;-82
2022/05/31 13:45:03;;;;;;;;;;;24.10;73.50;;;;;;5069739;28;19976;-82
2022/05/31 13:47:30;;;;;;;;;;;24.20;76.20;;;;;;5067686;28;19913;-82
2022/05/31 13:50:06;;;;;;;;;;;24.30;80.10;;;;;;5063259;28;19921;-81
2022/05/31 13:52:33;;;;;;;;;;;24.50;83.30;;;;;;5067458;28;19913;-82
2022/05/31 13:55:16;;;;;;;;;;;24.50;84.90;;;;;;5062144;28;19947;-83
2022/05/31 13:57:55;;;;;;;;;;;24.80;87.20;;;;;;5066282;28;19920;-82
2022/05/31 14:00:34;;;;;;;;;;;25.30;90.60;;;;;;5061751;28;20006;-82
2022/05/31 14:03:06;;;;;;;;;;;25.60;91.20;;;;;;5064437;28;19967;-82
2022/05/31 14:05:39;;;;;;;;;;;25.50;91.80;;;;;;5063604;28;20995;-82
2022/05/31 14:08:08;;;;;;;;;;;25.80;92.90;;;;;;5066711;28;19924;-82
2022/05/31 14:10:47;;;;;;;;;;;25.80;92.90;;;;;;5066621;28;19978;-82
2022/05/31 14:13:23;;;;;;;;;;;25.60;92.90;;;;;;5065504;28;19912;-82
2022/05/31 14:15:51;;;;;;;;;;;25.60;93.00;;;;;;5061236;28;19980;-83
2022/05/31 14:18:17;;;;;;;;;;;25.40;93.30;;;;;;5063304;28;20210;-82
2022/05/31 14:20:44;;;;;;;;;;;25.20;93.70;;;;;;5066338;28;19920;-83
2022/05/31 14:23:17;;;;;;;;;;;25.10;92.40;;;;;;5065325;28;19935;-82
2022/05/31 14:25:46;;;;;;;;;;;25.00;93.70;;;;;;5063194;28;20416;-82
2022/05/31 14:28:18;;;;;;;;;;;24.90;99.90;;;;;;5061136;28;20325;-82
2022/05/31 14:30:49;;;;;;;;;;;24.60;93.10;;;;;;5080799;28;19919;-84
2022/05/31 14:33:15;;;;;;;;;;;24.60;93.50;;;;;;5064593;28;19948;-82
2022/05/31 14:35:43;;;;;;;;;;;24.50;94.70;;;;;;5065474;28;19921;-83
2022/05/31 14:38:12;;;;;;;;;;;24.10;94.10;;;;;;5065259;28;20297;-83
2022/05/31 14:40:39;;;;;;;;;;;23.90;93.50;;;;;;5068558;28;19917;-82
2022/05/31 14:43:25;;;;;;;;;;;23.70;93.40;;;;;;5066793;28;19913;-82
2022/05/31 14:45:51;;;;;;;;;;;23.40;93.10;;;;;;5064651;28;19982;-81
2022/05/31 14:48:31;;;;;;;;;;;23.30;93.90;;;;;;5065747;28;20452;-83
2022/05/31 14:51:01;;;;;;;;;;;23.30;95.00;;;;;;5065602;28;19934;-83
2022/05/31 14:53:34;;;;;;;;;;;23.60;97.80;;;;;;5066578;28;19916;-81
2022/05/31 14:56:00;;;;;;;;;;;23.50;98.10;;;;;;5068400;28;19923;-82
2022/05/31 14:58:37;;;;;;;;;;;23.60;98.40;;;;;;5065951;28;19949;-83
2022/05/31 15:01:14;;;;;;;;;;;23.60;99.20;;;;;;5065874;28;19917;-82
2022/05/31 15:03:48;;;;;;;;;;;23.60;99.50;;;;;;5062256;28;19912;-82
2022/05/31 15:06:23;;;;;;;;;;;23.30;99.60;;;;;;5065485;28;19939;-83
2022/05/31 15:08:58;;;;;;;;;;;23.30;99.70;;;;;;5066172;28;19925;-82
2022/05/31 15:19:42;;;;;;;;;;;21.90;99.10;;;;;;5066067;28;19919;-82
2022/05/31 15:22:08;;;;;;;;;;;21.70;99.30;;;;;;5070088;28;19942;-81
2022/05/31 15:24:41;;;;;;;;;;;21.50;99.90;;;;;;5065663;28;20015;-82
2022/05/31 15:27:10;;;;;;;;;;;21.40;99.90;;;;;;5062835;28;19913;-80
2022/05/31 15:29:35;;;;;;;;;;;21.20;99.90;;;;;;5066395;28;19921;-81
2022/05/31 15:32:03;;;;;;;;;;;21.00;99.90;;;;;;5062968;28;19956;-81
2022/05/31 15:34:28;;;;;;;;;;;20.90;99.90;;;;;;5064381;28;20296;-83
2022/05/31 15:36:57;;;;;;;;;;;20.60;99.90;;;;;;5066479;28;19948;-80
2022/05/31 15:39:23;;;;;;;;;;;20.60;99.90;;;;;;5064722;28;19968;-80
2022/05/31 15:41:48;;;;;;;;;;;20.50;99.90;;;;;;5065666;28;19955;-84
2022/05/31 15:44:14;;;;;;;;;;;20.50;99.90;;;;;;5063574;28;19924;-83
2022/05/31 15:46:40;;;;;;;;;;;20.70;99.90;;;;;;5066157;28;19917;-83
2022/05/31 15:49:06;;;;;;;;;;;20.90;99.90;;;;;;5062867;28;20293;-83
2022/05/31 15:51:35;;;;;;;;;;;20.90;99.90;;;;;;5064758;28;19979;-83
2022/05/31 15:54:07;;;;;;;;;;;20.90;99.90;;;;;;5062925;28;19912;-83
2022/05/31 15:56:33;;;;;;;;;;;20.80;99.90;;;;;;5062968;28;19921;-83
2022/05/31 15:59:01;;;;;;;;;;;21.00;99.90;;;;;;5062903;28;19919;-84
2022/05/31 16:01:26;;;;;;;;;;;21.00;99.90;;;;;;5067509;28;20062;-84
2022/05/31 16:03:52;;;;;;;;;;;21.10;99.90;;;;;;5067527;28;19912;-83
2022/05/31 16:06:22;;;;;;;;;;;21.20;99.90;;;;;;5064369;28;19928;-83
2022/05/31 16:08:48;;;;;;;;;;;21.10;99.90;;;;;;5065433;28;19927;-83
2022/05/31 16:11:13;;;;;;;;;;;21.20;99.90;;;;;;5063283;28;19909;-83
2022/05/31 16:13:39;;;;;;;;;;;21.20;99.90;;;;;;5079052;28;19913;-83
2022/05/31 16:16:04;;;;;;;;;;;21.20;99.90;;;;;;5065430;28;19919;-82
2022/05/31 16:18:30;;;;;;;;;;;21.20;99.90;;;;;;5067957;28;19952;-82
2022/05/31 16:20:58;;;;;;;;;;;21.00;99.90;;;;;;5065091;28;19912;-84
2022/05/31 16:23:23;;;;;;;;;;;21.10;99.90;;;;;;5062797;28;19913;-84
2022/05/31 16:25:49;;;;;;;;;;;21.10;99.90;;;;;;5066942;28;20491;-84
2022/05/31 16:28:16;;;;;;;;;;;21.10;99.90;;;;;;5064556;28;19923;-83
2022/05/31 16:30:51;;;;;;;;;;;21.00;99.90;;;;;;5067973;28;19924;-83
2022/05/31 16:33:18;;;;;;;;;;;20.90;99.90;;;;;;5049805;28;19916;-83
2022/05/31 16:35:44;;;;;;;;;;;20.90;99.90;;;;;;5067720;28;19924;-83
2022/05/31 16:41:10;;;;;;;;;;;20.80;99.90;;;;;;5066660;28;19950;-83
2022/05/31 16:43:40;;;;;;;;;;;20.80;99.90;;;;;;5060743;28;19921;-83
2022/05/31 16:46:06;;;;;;;;;;;20.70;99.90;;;;;;5066398;28;19920;-82
2022/05/31 16:48:31;;;;;;;;;;;20.30;99.90;;;;;;5067281;28;19939;-82
2022/05/31 16:50:57;;;;;;;;;;;20.10;99.90;;;;;;5069901;28;19909;-83
2022/05/31 16:53:23;;;;;;;;;;;20.00;99.90;;;;;;5070359;28;19913;-83
2022/05/31 16:55:49;;;;;;;;;;;19.90;99.90;;;;;;5071491;28;19912;-83
2022/05/31 16:58:16;;;;;;;;;;;19.70;99.90;;;;;;5071817;28;19917;-83
2022/05/31 17:00:44;;;;;;;;;;;19.80;99.90;;;;;;5068298;28;19920;-84
2022/05/31 17:03:10;;;;;;;;;;;19.80;99.90;;;;;;5070225;28;19923;-83
2022/05/31 17:05:35;;;;;;;;;;;19.70;99.90;;;;;;5067964;28;20580;-83
2022/05/31 17:16:14;;;;;;;;;;;19.40;99.90;;;;;;5068570;28;19955;-81
2022/05/31 17:18:41;;;;;;;;;;;19.40;99.90;;;;;;5070567;28;19912;-84
2022/05/31 17:21:07;;;;;;;;;;;19.40;99.90;;;;;;5068536;28;19912;-81
2022/05/31 17:23:36;;;;;;;;;;;19.50;99.90;;;;;;5070240;28;19975;-80
2022/05/31 17:26:07;;;;;;;;;;;19.60;99.90;;;;;;5069673;28;19935;-82
2022/05/31 17:28:37;;;;;;;;;;;19.60;99.90;;;;;;5065418;28;19917;-82
2022/05/31 17:31:02;;;;;;;;;;;19.60;99.90;;;;;;5069516;28;19927;-82
2022/05/31 17:33:28;;;;;;;;;;;19.50;99.90;;;;;;5064466;28;19913;-82
2022/05/31 17:36:01;;;;;;;;;;;19.40;99.90;;;;;;5071632;28;19975;-82
2022/05/31 17:38:29;;;;;;;;;;;19.40;99.90;;;;;;5067695;28;19921;-82
2022/05/31 17:40:57;;;;;;;;;;;19.30;99.90;;;;;;5068579;28;19923;-82
2022/05/31 17:43:23;;;;;;;;;;;19.20;99.90;;;;;;5065916;28;19913;-83
2022/05/31 17:45:48;;;;;;;;;;;19.10;99.90;;;;;;5069996;28;19912;-82
2022/05/31 17:48:14;;;;;;;;;;;19.10;99.90;;;;;;5065346;28;19998;-80
2022/05/31 17:50:39;;;;;;;;;;;19.20;99.90;;;;;;5067831;28;19928;-81
2022/05/31 17:53:06;;;;;;;;;;;19.20;99.90;;;;;;5071902;28;19913;-81
2022/05/31 17:55:32;;;;;;;;;;;19.20;99.90;;;;;;5067125;28;19913;-82
2022/05/31 17:57:58;;;;;;;;;;;19.20;99.90;;;;;;5066015;28;19912;-81
2022/05/31 18:00:23;;;;;;;;;;;19.20;99.90;;;;;;5065481;28;20360;-82
2022/05/31 18:02:51;;;;;;;;;;;19.30;99.90;;;;;;5063700;28;19917;-82
2022/05/31 18:05:16;;;;;;;;;;;19.30;99.90;;;;;;5065376;28;19960;-83
2022/05/31 18:07:42;;;;;;;;;;;19.20;99.90;;;;;;5066161;28;19928;-83
2022/05/31 18:10:10;;;;;;;;;;;19.10;99.90;;;;;;5068686;28;19976;-83
2022/05/31 18:12:35;;;;;;;;;;;19.00;99.90;;;;;;5067574;28;19913;-84
2022/05/31 18:15:01;;;;;;;;;;;18.80;99.90;;;;;;5062941;28;19912;-84
2022/05/31 18:17:27;;;;;;;;;;;18.80;99.90;;;;;;5060754;28;19917;-84
2022/05/31 18:19:53;;;;;;;;;;;18.70;99.90;;;;;;5067811;28;20380;-82
2022/05/31 18:22:20;;;;;;;;;;;18.70;99.90;;;;;;5068572;28;19913;-82
2022/05/31 18:24:49;;;;;;;;;;;18.60;99.90;;;;;;5060328;28;19920;-83
2022/05/31 18:27:16;;;;;;;;;;;18.60;99.90;;;;;;5067214;28;20411;-83
2022/05/31 18:29:45;;;;;;;;;;;18.60;99.90;;;;;;5059956;28;19962;-83
2022/05/31 18:32:15;;;;;;;;;;;18.50;99.90;;;;;;5062733;28;19916;-85
2022/05/31 18:34:42;;;;;;;;;;;18.50;99.90;;;;;;5067907;28;19920;-86
2022/05/31 18:42:01;;;;;;;;;;;18.40;99.90;;;;;;5069623;28;19916;-83
2022/05/31 18:44:26;;;;;;;;;;;18.40;99.90;;;;;;5067934;28;20091;-82
2022/05/31 18:46:52;;;;;;;;;;;18.30;99.90;;;;;;5069209;28;19913;-82
2022/05/31 18:49:17;;;;;;;;;;;18.30;99.90;;;;;;5065889;28;19947;-82
2022/05/31 18:51:43;;;;;;;;;;;18.20;99.90;;;;;;5068180;28;20538;-82
2022/05/31 18:54:10;;;;;;;;;;;18.10;99.90;;;;;;5063880;28;19980;-82
2022/05/31 18:56:39;;;;;;;;;;;18.10;99.90;;;;;;5068458;28;19917;-82
2022/05/31 18:59:05;;;;;;;;;;;18.10;99.90;;;;;;5062535;28;19920;-82
2022/05/31 19:01:32;;;;;;;;;;;18.10;99.90;;;;;;5069031;28;19927;-83
2022/05/31 19:03:58;;;;;;;;;;;18.20;99.90;;;;;;5067314;28;19913;-82
2022/05/31 19:06:24;;;;;;;;;;;18.20;99.90;;;;;;5067666;28;19920;-83
2022/05/31 19:08:50;;;;;;;;;;;18.30;99.90;;;;;;5069672;28;19920;-82